sensor_id;sensor_type;location;lat;lon;timestamp;P1;durP1;ratioP1;P2;durP2;ratioP2
1262;SDS011;62267;50.112;8.704;2023-04-03T00:01:29;4.43;;;3.77;;
1262;SDS011;62267;50.112;8.704;2023-04-03T00:04:19;4.23;;;3.50;;
1262;SDS011;62267;50.112;8.704;2023-04-03T00:06:47;3.40;;;3.20;;
1262;SDS011;62267;50.112;8.704;2023-04-03T00:09:15;3.70;;;3.47;;
1262;SDS011;62267;50.112;8.704;2023-04-03T00:11:43;4.10;;;3.70;;
1262;SDS011;62267;50.112;8.704;2023-04-03T00:14:11;4.07;;;3.77;;
1262;SDS011;62267;50.112;8.704;2023-04-03T00:16:39;3.83;;;3.33;;
1262;SDS011;62267;50.112;8.704;2023-04-03T00:19:07;3.87;;;3.57;;
1262;SDS011;62267;50.112;8.704;2023-04-03T00:21:35;3.40;;;3.20;;
1262;SDS011;62267;50.112;8.704;2023-04-03T00:24:03;3.70;;;3.30;;
1262;SDS011;62267;50.112;8.704;2023-04-03T00:26:31;3.80;;;3.50;;
1262;SDS011;62267;50.112;8.704;2023-04-03T00:28:58;3.90;;;3.50;;
1262;SDS011;62267;50.112;8.704;2023-04-03T00:31:27;3.70;;;3.40;;
1262;SDS011;62267;50.112;8.704;2023-04-03T00:33:54;4.00;;;3.43;;
1262;SDS011;62267;50.112;8.704;2023-04-03T00:36:22;4.37;;;3.70;;
1262;SDS011;62267;50.112;8.704;2023-04-03T00:38:50;6.53;;;3.70;;
1262;SDS011;62267;50.112;8.704;2023-04-03T00:41:18;5.30;;;3.50;;
1262;SDS011;62267;50.112;8.704;2023-04-03T00:43:47;3.77;;;3.50;;
1262;SDS011;62267;50.112;8.704;2023-04-03T00:46:16;5.67;;;3.80;;
1262;SDS011;62267;50.112;8.704;2023-04-03T00:48:44;4.10;;;3.53;;
1262;SDS011;62267;50.112;8.704;2023-04-03T00:51:13;3.60;;;3.30;;
1262;SDS011;62267;50.112;8.704;2023-04-03T00:53:46;3.10;;;2.90;;
1262;SDS011;62267;50.112;8.704;2023-04-03T00:56:16;4.07;;;3.57;;
1262;SDS011;62267;50.112;8.704;2023-04-03T00:58:50;3.23;;;3.03;;
1262;SDS011;62267;50.112;8.704;2023-04-03T01:01:20;3.27;;;3.07;;
1262;SDS011;62267;50.112;8.704;2023-04-03T01:03:51;3.27;;;3.07;;
1262;SDS011;62267;50.112;8.704;2023-04-03T01:06:23;3.17;;;2.87;;
1262;SDS011;62267;50.112;8.704;2023-04-03T01:08:52;3.33;;;3.00;;
1262;SDS011;62267;50.112;8.704;2023-04-03T01:11:21;2.90;;;2.50;;
1262;SDS011;62267;50.112;8.704;2023-04-03T01:13:49;6.87;;;3.23;;
1262;SDS011;62267;50.112;8.704;2023-04-03T01:16:17;3.40;;;3.10;;
1262;SDS011;62267;50.112;8.704;2023-04-03T01:18:46;4.57;;;4.00;;
1262;SDS011;62267;50.112;8.704;2023-04-03T01:26:45;6.63;;;3.70;;
1262;SDS011;62267;50.112;8.704;2023-04-03T01:29:13;3.73;;;3.43;;
1262;SDS011;62267;50.112;8.704;2023-04-03T01:34:12;3.40;;;3.10;;
1262;SDS011;62267;50.112;8.704;2023-04-03T01:36:41;4.87;;;3.20;;
1262;SDS011;62267;50.112;8.704;2023-04-03T01:39:10;5.53;;;3.20;;
1262;SDS011;62267;50.112;8.704;2023-04-03T01:41:38;3.13;;;2.93;;
1262;SDS011;62267;50.112;8.704;2023-04-03T01:44:14;5.43;;;3.07;;
1262;SDS011;62267;50.112;8.704;2023-04-03T01:46:44;3.40;;;2.77;;
1262;SDS011;62267;50.112;8.704;2023-04-03T01:49:12;10.60;;;3.70;;
1262;SDS011;62267;50.112;8.704;2023-04-03T01:51:47;3.50;;;2.87;;
1262;SDS011;62267;50.112;8.704;2023-04-03T01:54:15;2.90;;;2.70;;
1262;SDS011;62267;50.112;8.704;2023-04-03T01:56:44;3.07;;;2.63;;
1262;SDS011;62267;50.112;8.704;2023-04-03T01:59:13;2.70;;;2.50;;
1262;SDS011;62267;50.112;8.704;2023-04-03T02:01:44;3.73;;;2.67;;
1262;SDS011;62267;50.112;8.704;2023-04-03T02:04:12;2.90;;;2.70;;
1262;SDS011;62267;50.112;8.704;2023-04-03T02:06:41;3.67;;;3.20;;
1262;SDS011;62267;50.112;8.704;2023-04-03T02:09:09;2.80;;;2.60;;
1262;SDS011;62267;50.112;8.704;2023-04-03T02:11:36;4.20;;;2.80;;
1262;SDS011;62267;50.112;8.704;2023-04-03T02:14:04;4.23;;;2.90;;
1262;SDS011;62267;50.112;8.704;2023-04-03T02:16:33;4.13;;;3.30;;
1262;SDS011;62267;50.112;8.704;2023-04-03T02:19:02;2.80;;;2.60;;
1262;SDS011;62267;50.112;8.704;2023-04-03T02:21:30;4.10;;;3.27;;
1262;SDS011;62267;50.112;8.704;2023-04-03T02:23:58;4.20;;;2.60;;
1262;SDS011;62267;50.112;8.704;2023-04-03T02:26:26;3.00;;;2.60;;
1262;SDS011;62267;50.112;8.704;2023-04-03T02:28:54;4.73;;;3.00;;
1262;SDS011;62267;50.112;8.704;2023-04-03T02:31:21;3.07;;;2.87;;
1262;SDS011;62267;50.112;8.704;2023-04-03T02:33:51;4.30;;;2.83;;
1262;SDS011;62267;50.112;8.704;2023-04-03T02:36:19;3.30;;;3.00;;
1262;SDS011;62267;50.112;8.704;2023-04-03T02:38:52;6.87;;;3.70;;
1262;SDS011;62267;50.112;8.704;2023-04-03T02:41:19;3.70;;;3.40;;
1262;SDS011;62267;50.112;8.704;2023-04-03T02:43:48;3.90;;;3.03;;
1262;SDS011;62267;50.112;8.704;2023-04-03T02:46:19;3.67;;;3.27;;
1262;SDS011;62267;50.112;8.704;2023-04-03T02:48:46;3.93;;;2.97;;
1262;SDS011;62267;50.112;8.704;2023-04-03T02:51:14;3.80;;;2.73;;
1262;SDS011;62267;50.112;8.704;2023-04-03T02:53:41;4.00;;;2.77;;
1262;SDS011;62267;50.112;8.704;2023-04-03T02:56:14;2.97;;;2.70;;
1262;SDS011;62267;50.112;8.704;2023-04-03T02:58:44;4.23;;;2.93;;
1262;SDS011;62267;50.112;8.704;2023-04-03T03:01:13;2.63;;;2.27;;
1262;SDS011;62267;50.112;8.704;2023-04-03T03:03:41;2.77;;;2.57;;
1262;SDS011;62267;50.112;8.704;2023-04-03T03:06:13;3.77;;;2.73;;
1262;SDS011;62267;50.112;8.704;2023-04-03T03:08:45;6.17;;;2.40;;
1262;SDS011;62267;50.112;8.704;2023-04-03T03:11:14;4.60;;;2.47;;
1262;SDS011;62267;50.112;8.704;2023-04-03T03:13:43;2.50;;;2.30;;
1262;SDS011;62267;50.112;8.704;2023-04-03T03:16:11;3.57;;;2.90;;
1262;SDS011;62267;50.112;8.704;2023-04-03T03:18:39;5.00;;;2.40;;
1262;SDS011;62267;50.112;8.704;2023-04-03T03:21:06;6.33;;;3.17;;
1262;SDS011;62267;50.112;8.704;2023-04-03T03:23:34;4.43;;;2.57;;
1262;SDS011;62267;50.112;8.704;2023-04-03T03:26:04;3.17;;;2.20;;
1262;SDS011;62267;50.112;8.704;2023-04-03T03:28:35;2.90;;;2.37;;
1262;SDS011;62267;50.112;8.704;2023-04-03T03:31:04;4.03;;;2.20;;
1262;SDS011;62267;50.112;8.704;2023-04-03T03:33:36;3.60;;;2.20;;
1262;SDS011;62267;50.112;8.704;2023-04-03T03:36:05;7.80;;;4.13;;
1262;SDS011;62267;50.112;8.704;2023-04-03T03:38:35;2.97;;;2.20;;
1262;SDS011;62267;50.112;8.704;2023-04-03T03:41:04;6.67;;;2.77;;
1262;SDS011;62267;50.112;8.704;2023-04-03T03:43:33;2.70;;;2.30;;
1262;SDS011;62267;50.112;8.704;2023-04-03T03:46:02;7.70;;;2.60;;
1262;SDS011;62267;50.112;8.704;2023-04-03T03:48:31;4.23;;;2.33;;
1262;SDS011;62267;50.112;8.704;2023-04-03T03:51:00;4.73;;;2.63;;
1262;SDS011;62267;50.112;8.704;2023-04-03T03:53:31;3.50;;;2.40;;
1262;SDS011;62267;50.112;8.704;2023-04-03T03:56:06;3.77;;;2.63;;
1262;SDS011;62267;50.112;8.704;2023-04-03T03:58:35;8.30;;;2.60;;
1262;SDS011;62267;50.112;8.704;2023-04-03T04:01:03;4.50;;;2.87;;
1262;SDS011;62267;50.112;8.704;2023-04-03T04:03:35;3.00;;;2.20;;
1262;SDS011;62267;50.112;8.704;2023-04-03T04:06:06;2.87;;;2.30;;
1262;SDS011;62267;50.112;8.704;2023-04-03T04:08:34;4.47;;;2.40;;
1262;SDS011;62267;50.112;8.704;2023-04-03T04:11:05;5.80;;;2.60;;
1262;SDS011;62267;50.112;8.704;2023-04-03T04:13:33;3.83;;;2.53;;
1262;SDS011;62267;50.112;8.704;2023-04-03T04:16:02;3.43;;;2.50;;
1262;SDS011;62267;50.112;8.704;2023-04-03T04:18:32;3.00;;;2.80;;
1262;SDS011;62267;50.112;8.704;2023-04-03T04:21:00;4.53;;;2.70;;
1262;SDS011;62267;50.112;8.704;2023-04-03T04:23:31;4.80;;;2.70;;
1262;SDS011;62267;50.112;8.704;2023-04-03T04:25:59;4.90;;;2.67;;
1262;SDS011;62267;50.112;8.704;2023-04-03T04:28:35;4.07;;;2.70;;
1262;SDS011;62267;50.112;8.704;2023-04-03T04:31:06;4.50;;;3.20;;
1262;SDS011;62267;50.112;8.704;2023-04-03T04:33:35;3.07;;;2.77;;
1262;SDS011;62267;50.112;8.704;2023-04-03T04:36:04;4.30;;;3.23;;
1262;SDS011;62267;50.112;8.704;2023-04-03T04:38:32;3.53;;;3.00;;
1262;SDS011;62267;50.112;8.704;2023-04-03T04:41:04;4.40;;;2.93;;
1262;SDS011;62267;50.112;8.704;2023-04-03T04:43:32;3.27;;;2.50;;
1262;SDS011;62267;50.112;8.704;2023-04-03T04:46:04;4.70;;;2.70;;
1262;SDS011;62267;50.112;8.704;2023-04-03T04:48:41;4.50;;;2.77;;
1262;SDS011;62267;50.112;8.704;2023-04-03T04:51:11;4.47;;;2.93;;
1262;SDS011;62267;50.112;8.704;2023-04-03T04:53:43;6.83;;;2.60;;
1262;SDS011;62267;50.112;8.704;2023-04-03T04:56:14;6.03;;;5.10;;
1262;SDS011;62267;50.112;8.704;2023-04-03T04:58:42;3.57;;;3.27;;
1262;SDS011;62267;50.112;8.704;2023-04-03T05:01:11;5.40;;;3.10;;
1262;SDS011;62267;50.112;8.704;2023-04-03T05:03:54;4.27;;;3.17;;
1262;SDS011;62267;50.112;8.704;2023-04-03T05:06:22;6.40;;;3.70;;
1262;SDS011;62267;50.112;8.704;2023-04-03T05:08:50;3.50;;;3.00;;
1262;SDS011;62267;50.112;8.704;2023-04-03T05:11:19;3.20;;;2.40;;
1262;SDS011;62267;50.112;8.704;2023-04-03T05:13:50;3.00;;;2.80;;
1262;SDS011;62267;50.112;8.704;2023-04-03T05:16:19;7.53;;;3.20;;
1262;SDS011;62267;50.112;8.704;2023-04-03T05:18:50;5.63;;;3.67;;
1262;SDS011;62267;50.112;8.704;2023-04-03T05:21:20;4.80;;;4.40;;
1262;SDS011;62267;50.112;8.704;2023-04-03T05:23:51;4.40;;;3.70;;
1262;SDS011;62267;50.112;8.704;2023-04-03T05:26:19;4.07;;;3.50;;
1262;SDS011;62267;50.112;8.704;2023-04-03T05:28:49;4.87;;;3.60;;
1262;SDS011;62267;50.112;8.704;2023-04-03T05:31:20;3.30;;;3.00;;
1262;SDS011;62267;50.112;8.704;2023-04-03T05:33:51;3.83;;;3.00;;
1262;SDS011;62267;50.112;8.704;2023-04-03T05:36:18;5.17;;;3.27;;
1262;SDS011;62267;50.112;8.704;2023-04-03T05:38:52;3.63;;;3.13;;
1262;SDS011;62267;50.112;8.704;2023-04-03T05:41:20;3.77;;;3.40;;
1262;SDS011;62267;50.112;8.704;2023-04-03T05:43:52;4.47;;;3.43;;
1262;SDS011;62267;50.112;8.704;2023-04-03T05:46:22;6.33;;;3.50;;
1262;SDS011;62267;50.112;8.704;2023-04-03T05:48:54;4.27;;;3.23;;
1262;SDS011;62267;50.112;8.704;2023-04-03T05:51:28;6.10;;;3.47;;
1262;SDS011;62267;50.112;8.704;2023-04-03T05:54:09;6.60;;;3.40;;
1262;SDS011;62267;50.112;8.704;2023-04-03T05:56:38;7.33;;;3.27;;
1262;SDS011;62267;50.112;8.704;2023-04-03T05:59:06;7.40;;;3.50;;
1262;SDS011;62267;50.112;8.704;2023-04-03T06:01:34;3.70;;;3.37;;
1262;SDS011;62267;50.112;8.704;2023-04-03T06:04:02;4.47;;;3.47;;
1262;SDS011;62267;50.112;8.704;2023-04-03T06:09:16;3.67;;;3.30;;
1262;SDS011;62267;50.112;8.704;2023-04-03T06:11:43;5.40;;;4.27;;
1262;SDS011;62267;50.112;8.704;2023-04-03T06:14:11;4.93;;;3.93;;
1262;SDS011;62267;50.112;8.704;2023-04-03T06:16:39;9.37;;;5.00;;
1262;SDS011;62267;50.112;8.704;2023-04-03T06:19:07;5.63;;;3.80;;
1262;SDS011;62267;50.112;8.704;2023-04-03T06:21:38;6.33;;;3.50;;
1262;SDS011;62267;50.112;8.704;2023-04-03T06:24:11;4.47;;;3.80;;
1262;SDS011;62267;50.112;8.704;2023-04-03T06:26:43;5.27;;;4.70;;
1262;SDS011;62267;50.112;8.704;2023-04-03T06:29:15;7.93;;;5.17;;
1262;SDS011;62267;50.112;8.704;2023-04-03T06:31:42;8.07;;;6.57;;
1262;SDS011;62267;50.112;8.704;2023-04-03T06:34:11;4.83;;;3.87;;
1262;SDS011;62267;50.112;8.704;2023-04-03T06:36:40;7.30;;;4.80;;
1262;SDS011;62267;50.112;8.704;2023-04-03T06:39:08;5.00;;;3.80;;
1262;SDS011;62267;50.112;8.704;2023-04-03T06:41:37;4.30;;;3.90;;
1262;SDS011;62267;50.112;8.704;2023-04-03T06:44:05;8.27;;;4.00;;
1262;SDS011;62267;50.112;8.704;2023-04-03T06:46:34;9.17;;;4.40;;
1262;SDS011;62267;50.112;8.704;2023-04-03T06:49:01;6.10;;;3.30;;
1262;SDS011;62267;50.112;8.704;2023-04-03T06:51:32;6.57;;;3.80;;
1262;SDS011;62267;50.112;8.704;2023-04-03T06:54:01;5.80;;;3.63;;
1262;SDS011;62267;50.112;8.704;2023-04-03T06:56:30;5.20;;;4.20;;
1262;SDS011;62267;50.112;8.704;2023-04-03T06:59:03;5.70;;;3.50;;
1262;SDS011;62267;50.112;8.704;2023-04-03T07:01:32;6.43;;;4.70;;
1262;SDS011;62267;50.112;8.704;2023-04-03T07:04:07;7.40;;;3.40;;
1262;SDS011;62267;50.112;8.704;2023-04-03T07:06:36;4.57;;;3.97;;
1262;SDS011;62267;50.112;8.704;2023-04-03T07:09:13;8.50;;;4.30;;
1262;SDS011;62267;50.112;8.704;2023-04-03T07:11:40;8.30;;;4.67;;
1262;SDS011;62267;50.112;8.704;2023-04-03T07:14:08;8.03;;;3.90;;
1262;SDS011;62267;50.112;8.704;2023-04-03T07:16:35;6.40;;;4.03;;
1262;SDS011;62267;50.112;8.704;2023-04-03T07:19:07;4.70;;;3.80;;
1262;SDS011;62267;50.112;8.704;2023-04-03T07:21:35;5.03;;;4.47;;
1262;SDS011;62267;50.112;8.704;2023-04-03T07:24:04;4.63;;;3.50;;
1262;SDS011;62267;50.112;8.704;2023-04-03T07:26:43;10.13;;;4.67;;
1262;SDS011;62267;50.112;8.704;2023-04-03T07:29:11;5.10;;;3.90;;
1262;SDS011;62267;50.112;8.704;2023-04-03T07:31:39;5.23;;;4.20;;
1262;SDS011;62267;50.112;8.704;2023-04-03T07:34:20;4.70;;;3.97;;
1262;SDS011;62267;50.112;8.704;2023-04-03T07:36:54;4.50;;;3.73;;
1262;SDS011;62267;50.112;8.704;2023-04-03T07:39:24;5.50;;;3.90;;
1262;SDS011;62267;50.112;8.704;2023-04-03T07:42:54;5.23;;;3.77;;
1262;SDS011;62267;50.112;8.704;2023-04-03T07:45:51;3.47;;;3.17;;
1262;SDS011;62267;50.112;8.704;2023-04-03T07:48:26;8.43;;;4.10;;
1262;SDS011;62267;50.112;8.704;2023-04-03T07:50:53;7.60;;;4.33;;
1262;SDS011;62267;50.112;8.704;2023-04-03T07:53:21;5.10;;;4.03;;
1262;SDS011;62267;50.112;8.704;2023-04-03T07:56:03;11.57;;;7.73;;
1262;SDS011;62267;50.112;8.704;2023-04-03T07:58:57;4.50;;;3.90;;
1262;SDS011;62267;50.112;8.704;2023-04-03T08:02:20;3.73;;;3.30;;
1262;SDS011;62267;50.112;8.704;2023-04-03T08:05:53;4.27;;;3.87;;
1262;SDS011;62267;50.112;8.704;2023-04-03T08:08:21;7.10;;;3.63;;
1262;SDS011;62267;50.112;8.704;2023-04-03T08:10:51;3.67;;;3.37;;
1262;SDS011;62267;50.112;8.704;2023-04-03T08:13:19;3.30;;;3.10;;
1262;SDS011;62267;50.112;8.704;2023-04-03T08:15:47;10.33;;;4.03;;
1262;SDS011;62267;50.112;8.704;2023-04-03T08:18:15;4.40;;;3.70;;
1262;SDS011;62267;50.112;8.704;2023-04-03T08:20:44;6.23;;;4.07;;
1262;SDS011;62267;50.112;8.704;2023-04-03T08:23:11;4.30;;;3.40;;
1262;SDS011;62267;50.112;8.704;2023-04-03T08:25:42;5.77;;;3.60;;
1262;SDS011;62267;50.112;8.704;2023-04-03T08:28:12;5.73;;;3.73;;
1262;SDS011;62267;50.112;8.704;2023-04-03T08:30:40;6.47;;;3.67;;
1262;SDS011;62267;50.112;8.704;2023-04-03T08:33:08;5.67;;;4.10;;
1262;SDS011;62267;50.112;8.704;2023-04-03T08:35:40;5.30;;;3.33;;
1262;SDS011;62267;50.112;8.704;2023-04-03T08:38:08;4.50;;;3.60;;
1262;SDS011;62267;50.112;8.704;2023-04-03T08:40:36;4.87;;;4.17;;
1262;SDS011;62267;50.112;8.704;2023-04-03T08:45:51;4.90;;;3.63;;
1262;SDS011;62267;50.112;8.704;2023-04-03T08:48:20;4.13;;;3.73;;
1262;SDS011;62267;50.112;8.704;2023-04-03T08:50:51;6.33;;;4.30;;
1262;SDS011;62267;50.112;8.704;2023-04-03T08:53:20;4.27;;;3.33;;
1262;SDS011;62267;50.112;8.704;2023-04-03T08:55:49;5.57;;;4.27;;
1262;SDS011;62267;50.112;8.704;2023-04-03T08:58:29;3.57;;;3.27;;
1262;SDS011;62267;50.112;8.704;2023-04-03T09:01:03;6.70;;;4.40;;
1262;SDS011;62267;50.112;8.704;2023-04-03T09:03:40;3.83;;;3.27;;
1262;SDS011;62267;50.112;8.704;2023-04-03T09:06:41;5.93;;;3.87;;
1262;SDS011;62267;50.112;8.704;2023-04-03T09:11:44;3.83;;;3.20;;
1262;SDS011;62267;50.112;8.704;2023-04-03T09:17:09;4.67;;;3.10;;
1262;SDS011;62267;50.112;8.704;2023-04-03T09:19:41;6.80;;;2.90;;
1262;SDS011;62267;50.112;8.704;2023-04-03T09:22:19;6.63;;;4.80;;
1262;SDS011;62267;50.112;8.704;2023-04-03T09:24:50;5.70;;;4.07;;
1262;SDS011;62267;50.112;8.704;2023-04-03T09:27:19;5.63;;;3.70;;
1262;SDS011;62267;50.112;8.704;2023-04-03T09:29:47;4.30;;;3.87;;
1262;SDS011;62267;50.112;8.704;2023-04-03T09:32:24;4.50;;;4.00;;
1262;SDS011;62267;50.112;8.704;2023-04-03T09:34:52;4.40;;;3.93;;
1262;SDS011;62267;50.112;8.704;2023-04-03T09:37:38;5.57;;;4.37;;
1262;SDS011;62267;50.112;8.704;2023-04-03T09:42:54;4.30;;;3.80;;
1262;SDS011;62267;50.112;8.704;2023-04-03T09:45:34;5.20;;;4.70;;
1262;SDS011;62267;50.112;8.704;2023-04-03T09:50:34;4.20;;;3.53;;
1262;SDS011;62267;50.112;8.704;2023-04-03T09:53:06;5.10;;;3.80;;
1262;SDS011;62267;50.112;8.704;2023-04-03T09:55:41;6.03;;;4.80;;
1262;SDS011;62267;50.112;8.704;2023-04-03T09:58:22;4.32;;;3.50;;
1262;SDS011;62267;50.112;8.704;2023-04-03T10:00:58;4.40;;;4.00;;
1262;SDS011;62267;50.112;8.704;2023-04-03T10:03:32;5.73;;;4.27;;
1262;SDS011;62267;50.112;8.704;2023-04-03T10:06:02;4.00;;;3.60;;
1262;SDS011;62267;50.112;8.704;2023-04-03T10:08:32;5.50;;;3.97;;
1262;SDS011;62267;50.112;8.704;2023-04-03T10:11:06;4.50;;;3.57;;
1262;SDS011;62267;50.112;8.704;2023-04-03T10:13:33;4.40;;;4.03;;
1262;SDS011;62267;50.112;8.704;2023-04-03T10:16:17;7.90;;;4.20;;
1262;SDS011;62267;50.112;8.704;2023-04-03T10:18:56;3.93;;;3.57;;
1262;SDS011;62267;50.112;8.704;2023-04-03T10:24:07;4.70;;;4.30;;
1262;SDS011;62267;50.112;8.704;2023-04-03T10:31:59;4.83;;;4.07;;
1262;SDS011;62267;50.112;8.704;2023-04-03T10:34:39;4.13;;;3.83;;
1262;SDS011;62267;50.112;8.704;2023-04-03T10:37:34;5.70;;;4.27;;
1262;SDS011;62267;50.112;8.704;2023-04-03T10:40:22;5.00;;;4.60;;
1262;SDS011;62267;50.112;8.704;2023-04-03T10:42:55;7.13;;;5.00;;
1262;SDS011;62267;50.112;8.704;2023-04-03T10:45:29;6.43;;;4.90;;
1262;SDS011;62267;50.112;8.704;2023-04-03T10:48:14;6.10;;;4.23;;
1262;SDS011;62267;50.112;8.704;2023-04-03T10:53:31;5.77;;;5.20;;
1262;SDS011;62267;50.112;8.704;2023-04-03T10:58:50;4.73;;;4.30;;
1262;SDS011;62267;50.112;8.704;2023-04-03T11:01:21;5.93;;;4.00;;
1262;SDS011;62267;50.112;8.704;2023-04-03T11:03:52;5.63;;;4.20;;
1262;SDS011;62267;50.112;8.704;2023-04-03T11:06:21;5.10;;;4.37;;
1262;SDS011;62267;50.112;8.704;2023-04-03T11:08:53;3.70;;;3.50;;
1262;SDS011;62267;50.112;8.704;2023-04-03T11:11:26;4.37;;;4.00;;
1262;SDS011;62267;50.112;8.704;2023-04-03T11:14:01;5.00;;;4.57;;
1262;SDS011;62267;50.112;8.704;2023-04-03T11:16:34;7.10;;;4.17;;
1262;SDS011;62267;50.112;8.704;2023-04-03T11:19:16;4.33;;;4.03;;
1262;SDS011;62267;50.112;8.704;2023-04-03T11:21:51;5.20;;;3.90;;
1262;SDS011;62267;50.112;8.704;2023-04-03T11:24:24;4.90;;;3.80;;
1262;SDS011;62267;50.112;8.704;2023-04-03T11:26:54;3.97;;;3.67;;
1262;SDS011;62267;50.112;8.704;2023-04-03T11:29:23;4.30;;;3.90;;
1262;SDS011;62267;50.112;8.704;2023-04-03T11:32:09;4.30;;;3.90;;
1262;SDS011;62267;50.112;8.704;2023-04-03T11:34:42;3.73;;;3.20;;
1262;SDS011;62267;50.112;8.704;2023-04-03T11:37:23;3.73;;;3.43;;
1262;SDS011;62267;50.112;8.704;2023-04-03T11:39:54;5.80;;;4.10;;
1262;SDS011;62267;50.112;8.704;2023-04-03T11:42:32;4.30;;;4.00;;
1262;SDS011;62267;50.112;8.704;2023-04-03T11:47:44;4.33;;;4.03;;
1262;SDS011;62267;50.112;8.704;2023-04-03T11:53:00;6.17;;;4.00;;
1262;SDS011;62267;50.112;8.704;2023-04-03T12:16:26;4.93;;;4.43;;
1262;SDS011;62267;50.112;8.704;2023-04-03T12:18:58;5.50;;;4.00;;
1262;SDS011;62267;50.112;8.704;2023-04-03T12:26:51;5.17;;;4.00;;
1262;SDS011;62267;50.112;8.704;2023-04-03T12:34:53;4.70;;;4.30;;
1262;SDS011;62267;50.112;8.704;2023-04-03T12:37:38;4.80;;;4.30;;
1262;SDS011;62267;50.112;8.704;2023-04-03T12:42:39;3.70;;;3.40;;
1262;SDS011;62267;50.112;8.704;2023-04-03T12:45:17;5.80;;;4.53;;
1262;SDS011;62267;50.112;8.704;2023-04-03T12:47:47;5.80;;;4.40;;
1262;SDS011;62267;50.112;8.704;2023-04-03T12:50:22;5.03;;;4.53;;
1262;SDS011;62267;50.112;8.704;2023-04-03T12:52:54;6.20;;;5.27;;
1262;SDS011;62267;50.112;8.704;2023-04-03T12:55:23;4.77;;;4.30;;
1262;SDS011;62267;50.112;8.704;2023-04-03T12:57:54;4.20;;;3.90;;
1262;SDS011;62267;50.112;8.704;2023-04-03T13:00:25;7.40;;;3.73;;
1262;SDS011;62267;50.112;8.704;2023-04-03T13:02:53;4.83;;;4.03;;
1262;SDS011;62267;50.112;8.704;2023-04-03T13:05:23;6.83;;;4.57;;
1262;SDS011;62267;50.112;8.704;2023-04-03T13:07:58;5.10;;;4.33;;
1262;SDS011;62267;50.112;8.704;2023-04-03T13:10:25;4.30;;;3.97;;
1262;SDS011;62267;50.112;8.704;2023-04-03T13:12:54;4.30;;;3.90;;
1262;SDS011;62267;50.112;8.704;2023-04-03T13:15:30;4.33;;;4.03;;
1262;SDS011;62267;50.112;8.704;2023-04-03T13:17:57;4.60;;;4.07;;
1262;SDS011;62267;50.112;8.704;2023-04-03T13:20:32;4.80;;;4.40;;
1262;SDS011;62267;50.112;8.704;2023-04-03T13:23:06;4.73;;;4.33;;
1262;SDS011;62267;50.112;8.704;2023-04-03T13:25:40;4.20;;;3.90;;
1262;SDS011;62267;50.112;8.704;2023-04-03T13:28:10;5.27;;;4.40;;
1262;SDS011;62267;50.112;8.704;2023-04-03T13:30:41;4.97;;;4.30;;
1262;SDS011;62267;50.112;8.704;2023-04-03T13:33:23;5.90;;;4.63;;
1262;SDS011;62267;50.112;8.704;2023-04-03T13:35:54;5.10;;;4.30;;
1262;SDS011;62267;50.112;8.704;2023-04-03T13:38:24;5.90;;;4.53;;
1262;SDS011;62267;50.112;8.704;2023-04-03T13:40:57;9.27;;;5.43;;
1262;SDS011;62267;50.112;8.704;2023-04-03T13:43:28;8.07;;;4.23;;
1262;SDS011;62267;50.112;8.704;2023-04-03T13:46:19;4.90;;;3.97;;
1262;SDS011;62267;50.112;8.704;2023-04-03T13:48:46;4.73;;;4.23;;
1262;SDS011;62267;50.112;8.704;2023-04-03T13:53:43;6.23;;;4.40;;
1262;SDS011;62267;50.112;8.704;2023-04-03T13:56:27;8.10;;;4.40;;
1262;SDS011;62267;50.112;8.704;2023-04-03T13:59:20;5.03;;;4.63;;
1262;SDS011;62267;50.112;8.704;2023-04-03T14:01:53;6.60;;;4.73;;
1262;SDS011;62267;50.112;8.704;2023-04-03T14:04:25;5.43;;;4.27;;
1262;SDS011;62267;50.112;8.704;2023-04-03T14:06:54;5.13;;;4.17;;
1262;SDS011;62267;50.112;8.704;2023-04-03T14:09:22;6.73;;;4.37;;
1262;SDS011;62267;50.112;8.704;2023-04-03T14:11:50;9.10;;;6.10;;
1262;SDS011;62267;50.112;8.704;2023-04-03T14:14:21;4.70;;;3.93;;
1262;SDS011;62267;50.112;8.704;2023-04-03T14:16:51;5.80;;;4.20;;
1262;SDS011;62267;50.112;8.704;2023-04-03T14:19:22;5.77;;;3.70;;
1262;SDS011;62267;50.112;8.704;2023-04-03T14:21:51;4.00;;;3.60;;
1262;SDS011;62267;50.112;8.704;2023-04-03T14:24:21;4.97;;;3.97;;
1262;SDS011;62267;50.112;8.704;2023-04-03T14:26:49;3.60;;;3.30;;
1262;SDS011;62267;50.112;8.704;2023-04-03T14:29:17;4.30;;;3.60;;
1262;SDS011;62267;50.112;8.704;2023-04-03T14:31:45;3.37;;;3.07;;
1262;SDS011;62267;50.112;8.704;2023-04-03T14:34:13;3.40;;;3.10;;
1262;SDS011;62267;50.112;8.704;2023-04-03T14:36:41;4.57;;;3.20;;
1262;SDS011;62267;50.112;8.704;2023-04-03T14:39:16;3.33;;;3.00;;
1262;SDS011;62267;50.112;8.704;2023-04-03T14:41:44;3.80;;;3.27;;
1262;SDS011;62267;50.112;8.704;2023-04-03T14:44:11;3.00;;;2.80;;
1262;SDS011;62267;50.112;8.704;2023-04-03T14:46:42;3.30;;;3.00;;
1262;SDS011;62267;50.112;8.704;2023-04-03T14:49:24;3.27;;;2.97;;
1262;SDS011;62267;50.112;8.704;2023-04-03T14:51:51;3.40;;;3.10;;
1262;SDS011;62267;50.112;8.704;2023-04-03T14:54:22;4.70;;;2.93;;
1262;SDS011;62267;50.112;8.704;2023-04-03T14:56:55;3.90;;;2.97;;
1262;SDS011;62267;50.112;8.704;2023-04-03T14:59:22;2.73;;;2.53;;
1262;SDS011;62267;50.112;8.704;2023-04-03T15:01:50;3.03;;;2.70;;
1262;SDS011;62267;50.112;8.704;2023-04-03T15:04:19;4.53;;;3.07;;
1262;SDS011;62267;50.112;8.704;2023-04-03T15:06:48;3.23;;;2.73;;
1262;SDS011;62267;50.112;8.704;2023-04-03T15:09:34;3.63;;;3.33;;
1262;SDS011;62267;50.112;8.704;2023-04-03T15:12:01;3.10;;;2.80;;
1262;SDS011;62267;50.112;8.704;2023-04-03T15:14:29;3.20;;;2.90;;
1262;SDS011;62267;50.112;8.704;2023-04-03T15:17:17;3.00;;;2.57;;
1262;SDS011;62267;50.112;8.704;2023-04-03T15:19:47;2.43;;;2.23;;
1262;SDS011;62267;50.112;8.704;2023-04-03T15:22:18;2.70;;;2.50;;
1262;SDS011;62267;50.112;8.704;2023-04-03T15:24:46;4.77;;;3.00;;
1262;SDS011;62267;50.112;8.704;2023-04-03T15:27:13;3.37;;;2.80;;
1262;SDS011;62267;50.112;8.704;2023-04-03T15:29:42;3.50;;;2.97;;
1262;SDS011;62267;50.112;8.704;2023-04-03T15:32:09;3.90;;;2.50;;
1262;SDS011;62267;50.112;8.704;2023-04-03T15:34:38;3.73;;;2.30;;
1262;SDS011;62267;50.112;8.704;2023-04-03T15:37:06;3.00;;;2.53;;
1262;SDS011;62267;50.112;8.704;2023-04-03T15:39:33;3.20;;;2.90;;
1262;SDS011;62267;50.112;8.704;2023-04-03T15:42:00;4.87;;;3.33;;
1262;SDS011;62267;50.112;8.704;2023-04-03T15:44:32;3.47;;;3.17;;
1262;SDS011;62267;50.112;8.704;2023-04-03T15:47:00;4.27;;;2.60;;
1262;SDS011;62267;50.112;8.704;2023-04-03T15:49:28;5.57;;;3.53;;
1262;SDS011;62267;50.112;8.704;2023-04-03T15:51:56;3.10;;;2.80;;
1262;SDS011;62267;50.112;8.704;2023-04-03T15:54:23;2.77;;;2.57;;
1262;SDS011;62267;50.112;8.704;2023-04-03T15:56:52;3.30;;;3.00;;
1262;SDS011;62267;50.112;8.704;2023-04-03T15:59:19;2.90;;;2.70;;
1262;SDS011;62267;50.112;8.704;2023-04-03T16:01:48;4.00;;;3.60;;
1262;SDS011;62267;50.112;8.704;2023-04-03T16:04:16;2.90;;;2.40;;
1262;SDS011;62267;50.112;8.704;2023-04-03T16:06:50;3.08;;;2.88;;
1262;SDS011;62267;50.112;8.704;2023-04-03T16:09:18;2.40;;;2.10;;
1262;SDS011;62267;50.112;8.704;2023-04-03T16:11:47;3.60;;;2.80;;
1262;SDS011;62267;50.112;8.704;2023-04-03T16:14:17;3.07;;;2.30;;
1262;SDS011;62267;50.112;8.704;2023-04-03T16:16:46;3.80;;;2.70;;
1262;SDS011;62267;50.112;8.704;2023-04-03T16:19:14;3.13;;;2.53;;
1262;SDS011;62267;50.112;8.704;2023-04-03T16:21:43;2.27;;;2.07;;
1262;SDS011;62267;50.112;8.704;2023-04-03T16:24:10;3.90;;;3.10;;
1262;SDS011;62267;50.112;8.704;2023-04-03T16:26:45;3.83;;;2.63;;
1262;SDS011;62267;50.112;8.704;2023-04-03T16:29:12;5.80;;;3.60;;
1262;SDS011;62267;50.112;8.704;2023-04-03T16:31:39;3.77;;;3.47;;
1262;SDS011;62267;50.112;8.704;2023-04-03T16:34:06;2.80;;;2.60;;
1262;SDS011;62267;50.112;8.704;2023-04-03T16:36:34;6.70;;;3.10;;
1262;SDS011;62267;50.112;8.704;2023-04-03T16:39:01;6.10;;;3.27;;
1262;SDS011;62267;50.112;8.704;2023-04-03T16:41:29;6.63;;;3.37;;
1262;SDS011;62267;50.112;8.704;2023-04-03T16:43:58;2.63;;;2.43;;
1262;SDS011;62267;50.112;8.704;2023-04-03T16:46:25;5.77;;;2.83;;